Time;durP1;ratioP1;P1;durP2;ratioP2;P2;SDS_P1;SDS_P2;PMS_P1;PMS_P2;Temp;Humidity;BMP_temperature;BMP_pressure;BME280_temperature;BME280_humidity;BME280_pressure;Samples;Min_cycle;Max_cycle;Signal;HPM_P1;HPM_P2
2023/08/09 00:14:15;;;;;;;3.15;1.20;;;;;;;;;;6145600;23;20068;-82
2023/08/09 00:17:23;;;;;;;4.40;0.80;;;;;;;;;;6119382;23;20028;-82
2023/08/09 00:20:24;;;;;;;;;;;;;;;;;;;;;
2023/08/09 00:23:21;;;;;;;4.22;0.80;;;;;;;;;;6097711;23;20013;-82
2023/08/09 00:33:03;;;;;;;3.38;0.90;;;;;;;;;;6147940;23;20060;-82
2023/08/09 00:56:14;;;;;;;4.68;1.15;;;;;;;;;;6153562;23;20092;-81
2023/08/09 01:01:44;;;;;;;2.08;0.90;;;;;;;;;;6151818;23;20028;-81
2023/08/09 01:07:49;;;;;;;2.63;1.00;;;;;;;;;;6089301;23;20064;-81
2023/08/09 01:16:37;;;;;;;5.80;1.45;;;;;;;;;;6151964;23;20084;-81
2023/08/09 01:19:05;;;;;;;3.70;1.10;;;;;;;;;;6151597;23;20009;-81
2023/08/09 01:21:36;;;;;;;5.70;1.00;;;;;;;;;;6125816;23;20794;-81
2023/08/09 01:24:02;;;;;;;3.40;0.98;;;;;;;;;;6125505;23;20345;-81
2023/08/09 01:26:28;;;;;;;2.78;0.70;;;;;;;;;;6152123;23;20005;-81
2023/08/09 01:28:54;;;;;;;2.95;0.75;;;;;;;;;;6151360;23;20002;-81
2023/08/09 01:31:21;;;;;;;4.85;1.08;;;;;;;;;;6152163;23;20047;-81
2023/08/09 01:33:47;;;;;;;5.53;0.77;;;;;;;;;;6151590;23;20001;-81
2023/08/09 01:36:22;;;;;;;2.85;0.90;;;;;;;;;;6125892;23;20028;-81
2023/08/09 01:39:16;;;;;;;2.28;1.00;;;;;;;;;;6125637;23;20021;-81
2023/08/09 01:41:47;;;;;;;5.38;1.38;;;;;;;;;;6122781;23;20022;-81
2023/08/09 01:44:25;;;;;;;2.20;1.00;;;;;;;;;;6125847;23;20017;-82
2023/08/09 01:47:05;;;;;;;3.08;0.88;;;;;;;;;;6125672;23;20022;-82
2023/08/09 01:49:52;;;;;;;4.20;1.10;;;;;;;;;;6124134;23;20025;-81
2023/08/09 01:52:58;;;;;;;2.35;0.82;;;;;;;;;;6125047;23;20013;-81
2023/08/09 01:55:31;;;;;;;6.97;1.17;;;;;;;;;;6084209;23;20031;-81
2023/08/09 01:58:11;;;;;;;5.05;1.27;;;;;;;;;;6065080;23;20442;-81
2023/08/09 02:00:40;;;;;;;4.07;1.00;;;;;;;;;;6089190;23;20022;-81
2023/08/09 02:03:17;;;;;;;4.70;1.00;;;;;;;;;;6064566;23;20037;-81
2023/08/09 02:06:26;;;;;;;2.88;0.82;;;;;;;;;;6065572;23;20026;-81
2023/08/09 02:08:53;;;;;;;1.92;0.90;;;;;;;;;;6089422;23;20018;-81
2023/08/09 02:11:48;;;;;;;;;;;;;;;;;;;;;
2023/08/09 02:15:03;;;;;;;4.88;1.05;;;;;;;;;;6088813;23;20014;-82
2023/08/09 02:36:52;;;;;;;3.08;0.98;;;;;;;;;;6148464;23;20441;-82
2023/08/09 02:49:14;;;;;;;4.00;1.10;;;;;;;;;;6089133;23;20025;-82
2023/08/09 02:58:11;;;;;;;;;;;;;;;;;;;;;
2023/08/09 03:01:09;;;;;;;2.20;0.75;;;;;;;;;;6088649;23;20016;-81
2023/08/09 03:06:38;;;;;;;2.10;0.82;;;;;;;;;;6151002;23;20027;-81
2023/08/09 03:09:24;;;;;;;3.22;0.70;;;;;;;;;;6124928;23;20024;-81
2023/08/09 03:12:28;;;;;;;2.58;0.70;;;;;;;;;;6124062;23;20028;-81
2023/08/09 03:15:12;;;;;;;2.28;0.90;;;;;;;;;;6124300;23;20014;-81
2023/08/09 03:17:59;;;;;;;2.05;0.90;;;;;;;;;;6150137;23;20032;-81
2023/08/09 03:32:45;;;;;;;3.22;1.00;;;;;;;;;;6054910;23;20063;-81
2023/08/09 03:35:42;;;;;;;6.45;1.13;;;;;;;;;;6059350;23;20017;-82
2023/08/09 03:41:28;;;;;;;4.47;0.95;;;;;;;;;;6049760;23;20046;-81
2023/08/09 03:44:23;;;;;;;3.75;1.05;;;;;;;;;;6090090;23;20374;-81
2023/08/09 03:46:59;;;;;;;;;;;;;;;;;;;;;
2023/08/09 03:50:07;;;;;;;;;;;;;;;;;;;;;
2023/08/09 03:52:38;;;;;;;5.45;1.20;;;;;;;;;;6122902;23;20456;-81
2023/08/09 04:06:05;;;;;;;;;;;;;;;;;;;;;
2023/08/09 04:08:47;;;;;;;4.57;1.10;;;;;;;;;;6017673;23;20147;-82
2023/08/09 04:11:39;;;;;;;7.30;1.08;;;;;;;;;;5946795;24;20016;-81
2023/08/09 04:21:25;;;;;;;4.55;0.85;;;;;;;;;;6124581;23;20032;-81
2023/08/09 04:39:57;;;;;;;;;;;;;;;;;;;;;
2023/08/09 04:43:49;;;;;;;;;;;;;;;;;;;;;
2023/08/09 04:46:04;;;;;;;2.78;0.82;;;;;;;;;;5917999;24;20016;-82
2023/08/09 04:52:22;;;;;;;;;;;;;;;;;;;;;
2023/08/09 05:04:53;;;;;;;3.58;0.90;;;;;;;;;;6151330;23;20080;-81
2023/08/09 05:13:42;;;;;;;4.25;0.75;;;;;;;;;;6089891;23;20696;-82
2023/08/09 05:16:26;;;;;;;2.95;0.93;;;;;;;;;;6115592;23;20032;-82
2023/08/09 05:29:28;;;;;;;2.05;0.73;;;;;;;;;;6075185;22;20036;-82
2023/08/09 05:39:07;;;;;;;;;;;;;;;;;;;;;
2023/08/09 05:42:28;;;;;;;;;;;;;;;;;;;;;
2023/08/09 05:45:17;;;;;;;;;;;;;;;;;;;;;
2023/08/09 05:48:35;;;;;;;5.35;0.95;;;;;;;;;;6181737;23;20096;-83
2023/08/09 05:51:22;;;;;;;3.97;0.95;;;;;;;;;;6174076;23;20013;-82
2023/08/09 05:57:07;;;;;;;3.40;0.65;;;;;;;;;;6127662;23;20403;-82
2023/08/09 05:59:50;;;;;;;3.60;0.80;;;;;;;;;;6180993;23;20038;-82
2023/08/09 06:02:51;;;;;;;;;;;;;;;;;;;;;
2023/08/09 06:05:44;;;;;;;3.08;0.95;;;;;;;;;;6060652;23;20082;-82
2023/08/09 06:08:22;;;;;;;3.97;1.08;;;;;;;;;;6125050;23;20033;-82
2023/08/09 06:11:00;;;;;;;2.20;0.90;;;;;;;;;;6143484;23;20100;-82
2023/08/09 06:13:39;;;;;;;2.70;0.75;;;;;;;;;;6152959;23;20100;-82
2023/08/09 06:16:23;;;;;;;2.00;0.90;;;;;;;;;;6153994;23;20413;-82
2023/08/09 06:18:57;;;;;;;2.92;1.02;;;;;;;;;;6153715;23;20064;-82
2023/08/09 06:21:26;;;;;;;2.67;0.80;;;;;;;;;;6154083;23;20520;-82
2023/08/09 06:23:54;;;;;;;2.83;0.80;;;;;;;;;;6180805;23;20040;-82
2023/08/09 06:26:29;;;;;;;4.03;0.70;;;;;;;;;;6180791;23;20035;-82
2023/08/09 06:29:24;;;;;;;;;;;;;;;;;;;;;
2023/08/09 06:32:23;;;;;;;3.13;0.90;;;;;;;;;;6180275;23;20021;-83
2023/08/09 06:35:09;;;;;;;;;;;;;;;;;;;;;
2023/08/09 06:38:11;;;;;;;;;;;;;;;;;;;;;
2023/08/09 06:41:13;;;;;;;4.90;1.17;;;;;;;;;;6181079;23;20007;-83
2023/08/09 07:04:27;;;;;;;1.90;0.60;;;;;;;;;;6142021;23;20570;-82
2023/08/09 07:06:54;;;;;;;3.00;0.82;;;;;;;;;;6124000;23;20345;-82
2023/08/09 07:09:20;;;;;;;2.92;1.00;;;;;;;;;;6152086;23;20016;-83
2023/08/09 07:11:46;;;;;;;4.05;0.80;;;;;;;;;;6125244;23;20065;-83
2023/08/09 07:14:12;;;;;;;5.57;1.10;;;;;;;;;;6125278;23;20014;-83
2023/08/09 07:16:38;;;;;;;4.20;1.10;;;;;;;;;;6124851;23;20006;-83
2023/08/09 07:19:04;;;;;;;2.83;0.77;;;;;;;;;;6126666;23;20020;-84
2023/08/09 07:21:30;;;;;;;3.75;0.90;;;;;;;;;;6127338;23;20016;-83
2023/08/09 07:23:56;;;;;;;3.20;0.93;;;;;;;;;;6128288;23;20038;-84
2023/08/09 07:26:22;;;;;;;1.95;0.85;;;;;;;;;;6128224;23;20012;-83
2023/08/09 07:28:48;;;;;;;2.85;0.60;;;;;;;;;;6127914;23;20430;-83
2023/08/09 07:31:21;;;;;;;1.98;0.85;;;;;;;;;;6128841;23;20010;-83
2023/08/09 07:33:48;;;;;;;5.57;0.93;;;;;;;;;;6127548;23;20029;-85
2023/08/09 07:36:14;;;;;;;4.95;0.80;;;;;;;;;;6128482;23;20729;-83
2023/08/09 07:38:40;;;;;;;1.77;0.75;;;;;;;;;;6127707;23;20076;-83
2023/08/09 07:41:06;;;;;;;2.88;0.73;;;;;;;;;;6128033;23;20013;-86
2023/08/09 07:43:32;;;;;;;3.08;0.80;;;;;;;;;;6127434;23;20020;-84
2023/08/09 07:45:58;;;;;;;2.45;0.73;;;;;;;;;;6125585;23;20033;-83
2023/08/09 07:48:25;;;;;;;2.53;0.70;;;;;;;;;;6126774;23;20790;-84
2023/08/09 07:50:51;;;;;;;1.80;0.63;;;;;;;;;;6127788;23;20013;-82
2023/08/09 07:53:17;;;;;;;2.22;0.70;;;;;;;;;;6127474;23;20016;-83
2023/08/09 07:55:43;;;;;;;3.88;0.82;;;;;;;;;;6128115;23;20013;-84
2023/08/09 07:58:09;;;;;;;4.10;0.70;;;;;;;;;;6128119;23;20418;-83
2023/08/09 08:00:35;;;;;;;3.38;0.80;;;;;;;;;;6127928;23;20009;-83
2023/08/09 08:03:01;;;;;;;2.13;0.77;;;;;;;;;;6128235;23;20022;-83
2023/08/09 08:05:27;;;;;;;6.20;1.10;;;;;;;;;;6127218;23;20025;-82
2023/08/09 08:07:53;;;;;;;2.70;0.70;;;;;;;;;;6126793;23;20340;-84
2023/08/09 08:10:19;;;;;;;4.15;0.98;;;;;;;;;;6127045;23;20047;-83
2023/08/09 08:12:48;;;;;;;2.42;0.70;;;;;;;;;;6127532;23;20052;-82
2023/08/09 08:15:15;;;;;;;2.65;0.90;;;;;;;;;;6152977;23;20005;-83
2023/08/09 08:17:41;;;;;;;2.75;0.52;;;;;;;;;;6153310;23;20016;-84
2023/08/09 08:20:10;;;;;;;1.67;0.60;;;;;;;;;;6151864;23;20010;-85
2023/08/09 08:22:47;;;;;;;4.90;0.98;;;;;;;;;;6127054;23;20444;-85
2023/08/09 08:25:17;;;;;;;5.93;1.30;;;;;;;;;;6127316;23;20048;-83
2023/08/09 08:34:21;;;;;;;2.65;0.90;;;;;;;;;;6120886;23;20100;-87
2023/08/09 08:37:27;;;;;;;3.83;0.85;;;;;;;;;;6152707;23;20029;-86
2023/08/09 08:39:53;;;;;;;3.65;0.80;;;;;;;;;;6134649;23;20021;-86
2023/08/09 08:46:14;;;;;;;4.63;0.85;;;;;;;;;;6177365;23;20015;-92
2023/08/09 08:48:43;;;;;;;3.08;0.90;;;;;;;;;;6089390;23;20018;-86
2023/08/09 08:51:09;;;;;;;2.55;1.00;;;;;;;;;;6099985;23;20014;-86
2023/08/09 08:53:37;;;;;;;4.82;0.88;;;;;;;;;;6185058;23;20009;-87
2023/08/09 08:56:22;;;;;;;5.30;0.77;;;;;;;;;;6186818;23;20051;-88
2023/08/09 08:59:02;;;;;;;2.60;0.80;;;;;;;;;;6185942;23;20088;-88
2023/08/09 09:02:10;;;;;;;2.95;0.70;;;;;;;;;;6187174;23;20009;-88
2023/08/09 09:04:38;;;;;;;1.73;0.73;;;;;;;;;;6213232;23;20040;-89
2023/08/09 09:07:46;;;;;;;1.70;0.80;;;;;;;;;;6187316;23;20462;-88
2023/08/09 09:10:13;;;;;;;3.55;0.90;;;;;;;;;;6154672;23;20044;-89
2023/08/09 09:15:35;;;;;;;2.00;0.70;;;;;;;;;;6176237;23;20038;-87
2023/08/09 09:18:10;;;;;;;2.72;0.80;;;;;;;;;;6153737;23;20017;-88
2023/08/09 09:20:41;;;;;;;2.72;0.70;;;;;;;;;;6155369;23;20028;-88
2023/08/09 09:23:28;;;;;;;3.05;0.80;;;;;;;;;;6148589;23;20020;-88
2023/08/09 09:26:14;;;;;;;2.05;0.57;;;;;;;;;;6114552;23;20041;-88
2023/08/09 09:28:41;;;;;;;2.55;0.77;;;;;;;;;;6123870;23;20040;-87
2023/08/09 09:31:08;;;;;;;3.58;0.98;;;;;;;;;;6124199;23;20111;-87
2023/08/09 09:33:35;;;;;;;15.57;2.35;;;;;;;;;;6124205;23;20013;-87
2023/08/09 09:36:02;;;;;;;17.60;2.92;;;;;;;;;;6124499;23;20493;-89
2023/08/09 09:38:30;;;;;;;10.00;1.80;;;;;;;;;;6125399;23;20010;-89
2023/08/09 09:55:10;;;;;;;2.08;0.60;;;;;;;;;;6183840;23;20032;-91
2023/08/09 09:57:36;;;;;;;4.60;0.70;;;;;;;;;;6156590;23;20853;-91
2023/08/09 10:03:10;;;;;;;2.13;0.77;;;;;;;;;;6178176;23;20136;-89
2023/08/09 10:05:37;;;;;;;3.08;0.60;;;;;;;;;;6156316;23;20123;-91
2023/08/09 10:22:58;;;;;;;3.20;0.50;;;;;;;;;;6179368;23;20365;-90
2023/08/09 10:25:44;;;;;;;2.45;0.60;;;;;;;;;;6150368;23;20022;-89
2023/08/09 10:28:12;;;;;;;2.50;0.70;;;;;;;;;;6150452;23;20360;-91
2023/08/09 10:37:01;;;;;;;2.17;0.60;;;;;;;;;;6152322;23;20016;-92
2023/08/09 10:39:29;;;;;;;2.22;0.52;;;;;;;;;;6151754;23;20038;-90
2023/08/09 10:42:02;;;;;;;1.75;0.63;;;;;;;;;;6149725;23;20017;-87
2023/08/09 10:44:40;;;;;;;1.55;0.60;;;;;;;;;;6150238;23;20337;-89
2023/08/09 10:47:09;;;;;;;1.83;0.68;;;;;;;;;;6150228;23;20480;-89
2023/08/09 10:49:47;;;;;;;1.23;0.57;;;;;;;;;;6149763;23;20021;-89
2023/08/09 10:52:25;;;;;;;1.90;0.70;;;;;;;;;;6149994;23;20014;-89
2023/08/09 10:55:05;;;;;;;3.03;0.55;;;;;;;;;;6150102;23;20067;-88
2023/08/09 10:57:40;;;;;;;1.08;0.50;;;;;;;;;;6150592;23;20010;-87
2023/08/09 11:00:07;;;;;;;2.55;0.70;;;;;;;;;;6150478;23;20009;-86
2023/08/09 11:02:33;;;;;;;2.15;0.55;;;;;;;;;;6151824;23;20028;-85
2023/08/09 11:04:59;;;;;;;2.92;0.65;;;;;;;;;;6153564;23;20006;-84
2023/08/09 11:07:26;;;;;;;2.35;0.52;;;;;;;;;;6151205;23;20021;-84
2023/08/09 11:09:52;;;;;;;2.20;0.60;;;;;;;;;;6152639;23;20740;-86
2023/08/09 11:12:18;;;;;;;3.28;0.50;;;;;;;;;;6153771;23;20009;-87
2023/08/09 11:14:45;;;;;;;1.42;0.50;;;;;;;;;;6153328;23;20020;-88
2023/08/09 11:17:15;;;;;;;1.02;0.60;;;;;;;;;;6150864;23;20010;-86
2023/08/09 11:19:41;;;;;;;3.38;0.60;;;;;;;;;;6152214;23;20005;-85
2023/08/09 11:22:07;;;;;;;1.85;0.60;;;;;;;;;;6152554;23;20442;-85
2023/08/09 11:24:33;;;;;;;2.25;0.70;;;;;;;;;;6153731;23;20018;-86
2023/08/09 11:27:00;;;;;;;2.40;0.50;;;;;;;;;;6153581;23;20018;-83
2023/08/09 11:29:27;;;;;;;1.27;0.60;;;;;;;;;;6155684;23;20413;-85
2023/08/09 11:31:54;;;;;;;2.70;0.70;;;;;;;;;;6157786;23;20025;-85
2023/08/09 11:34:21;;;;;;;2.70;0.60;;;;;;;;;;6184677;23;20417;-83
2023/08/09 11:36:47;;;;;;;1.45;0.50;;;;;;;;;;6184034;23;20001;-84
2023/08/09 11:39:14;;;;;;;2.22;0.70;;;;;;;;;;6183711;23;20012;-85
2023/08/09 11:41:46;;;;;;;1.00;0.40;;;;;;;;;;6184014;23;20005;-84
2023/08/09 11:44:13;;;;;;;2.80;0.57;;;;;;;;;;6183009;23;20016;-84
2023/08/09 11:46:42;;;;;;;1.65;0.50;;;;;;;;;;6184032;23;20479;-84
2023/08/09 11:49:08;;;;;;;2.00;0.52;;;;;;;;;;6182582;23;20036;-83
2023/08/09 11:51:35;;;;;;;3.17;0.60;;;;;;;;;;6184127;23;20425;-85
2023/08/09 11:54:01;;;;;;;4.20;0.60;;;;;;;;;;6183519;23;20417;-84
2023/08/09 11:56:32;;;;;;;2.80;0.60;;;;;;;;;;6182386;23;20009;-84
2023/08/09 11:59:02;;;;;;;2.20;0.60;;;;;;;;;;6182837;23;20013;-85
2023/08/09 12:01:29;;;;;;;2.65;0.50;;;;;;;;;;6183062;23;20329;-84
2023/08/09 12:03:59;;;;;;;3.00;0.77;;;;;;;;;;6184055;23;20016;-86
2023/08/09 12:06:44;;;;;;;2.80;0.70;;;;;;;;;;6184714;23;20108;-85
2023/08/09 12:09:29;;;;;;;1.85;0.63;;;;;;;;;;6187143;23;20082;-85
2023/08/09 12:11:56;;;;;;;3.47;0.60;;;;;;;;;;6185412;23;20017;-85
2023/08/09 12:14:28;;;;;;;3.72;0.60;;;;;;;;;;6182080;23;20016;-89
2023/08/09 12:17:02;;;;;;;1.70;0.60;;;;;;;;;;6181325;23;20009;-89
2023/08/09 12:19:41;;;;;;;1.33;0.50;;;;;;;;;;6181034;23;20013;-89
2023/08/09 12:22:09;;;;;;;1.90;0.60;;;;;;;;;;6181904;23;20023;-88
2023/08/09 12:24:45;;;;;;;1.65;0.80;;;;;;;;;;6181893;23;20441;-89
2023/08/09 12:27:35;;;;;;;2.88;0.60;;;;;;;;;;6181462;23;20017;-89
2023/08/09 12:30:07;;;;;;;2.42;0.70;;;;;;;;;;6181527;23;20037;-88
2023/08/09 12:32:44;;;;;;;2.97;0.70;;;;;;;;;;6181431;23;20025;-88
2023/08/09 12:35:12;;;;;;;2.35;0.63;;;;;;;;;;6182065;23;20017;-87
2023/08/09 12:37:38;;;;;;;2.95;0.60;;;;;;;;;;6181540;23;20685;-90
2023/08/09 12:40:07;;;;;;;2.65;0.70;;;;;;;;;;6181321;23;20009;-86
2023/08/09 12:42:33;;;;;;;1.80;0.55;;;;;;;;;;6181265;23;20380;-89
2023/08/09 12:44:59;;;;;;;2.33;0.70;;;;;;;;;;6181011;23;20025;-88
2023/08/09 12:47:25;;;;;;;1.42;0.60;;;;;;;;;;6180856;23;20025;-89
2023/08/09 12:49:51;;;;;;;3.40;0.88;;;;;;;;;;6182067;23;20012;-86
2023/08/09 12:52:17;;;;;;;3.55;0.80;;;;;;;;;;6182026;23;20024;-86
2023/08/09 12:54:43;;;;;;;3.58;0.70;;;;;;;;;;6182541;23;20001;-87
2023/08/09 12:57:37;;;;;;;1.40;0.55;;;;;;;;;;6182042;23;20341;-90
2023/08/09 13:00:03;;;;;;;1.90;0.60;;;;;;;;;;6181758;23;20052;-88
2023/08/09 13:05:18;;;;;;;2.33;0.70;;;;;;;;;;6185016;23;20025;-87
2023/08/09 13:08:02;;;;;;;2.50;0.60;;;;;;;;;;6181969;23;20013;-87
2023/08/09 13:10:28;;;;;;;1.63;0.63;;;;;;;;;;6182842;23;20065;-89
2023/08/09 13:12:54;;;;;;;4.25;0.75;;;;;;;;;;6181628;23;20013;-87
2023/08/09 13:15:20;;;;;;;2.38;0.70;;;;;;;;;;6181787;23;20016;-87
2023/08/09 13:17:47;;;;;;;1.40;0.60;;;;;;;;;;6182958;23;20012;-88
2023/08/09 13:20:15;;;;;;;1.65;0.60;;;;;;;;;;6182950;23;20048;-88
2023/08/09 13:22:41;;;;;;;4.88;0.80;;;;;;;;;;6182997;23;20013;-88
2023/08/09 13:25:08;;;;;;;3.35;0.73;;;;;;;;;;6185100;23;20004;-88
2023/08/09 13:27:38;;;;;;;1.50;0.60;;;;;;;;;;6182969;23;20088;-87
2023/08/09 13:30:05;;;;;;;3.13;0.60;;;;;;;;;;6183469;23;20009;-88
2023/08/09 13:32:34;;;;;;;1.80;0.80;;;;;;;;;;6183234;23;20036;-87
2023/08/09 13:35:05;;;;;;;2.10;0.70;;;;;;;;;;6185577;23;20034;-88
2023/08/09 13:37:31;;;;;;;1.30;0.52;;;;;;;;;;6182828;23;20400;-88
2023/08/09 13:39:57;;;;;;;1.60;0.70;;;;;;;;;;6184227;23;20009;-88
2023/08/09 13:42:24;;;;;;;4.85;1.40;;;;;;;;;;6183904;23;20012;-88
2023/08/09 13:44:53;;;;;;;1.15;0.60;;;;;;;;;;6182669;23;20466;-88
2023/08/09 13:47:22;;;;;;;3.85;0.77;;;;;;;;;;6183622;23;20017;-88
2023/08/09 13:49:48;;;;;;;3.05;0.60;;;;;;;;;;6182431;23;20012;-87
2023/08/09 13:52:16;;;;;;;2.33;0.80;;;;;;;;;;6182475;23;20013;-88
2023/08/09 13:54:42;;;;;;;1.83;0.70;;;;;;;;;;6182653;23;20092;-89
2023/08/09 13:57:08;;;;;;;2.05;0.70;;;;;;;;;;6180873;23;20016;-88
2023/08/09 13:59:34;;;;;;;1.90;0.60;;;;;;;;;;6182005;23;20020;-90
2023/08/09 14:02:08;;;;;;;1.48;0.50;;;;;;;;;;6181473;23;20145;-91
2023/08/09 14:04:34;;;;;;;3.72;0.80;;;;;;;;;;6183303;23;20009;-89
2023/08/09 14:23:22;;;;;;;1.85;0.70;;;;;;;;;;6185174;23;20025;-90
2023/08/09 14:29:10;;;;;;;2.20;1.08;;;;;;;;;;6177691;23;20037;-93
2023/08/09 14:31:51;;;;;;;3.15;1.00;;;;;;;;;;6111359;23;20017;-92
2023/08/09 14:34:23;;;;;;;;;;;;;;;;;;6126610;23;20033;-91
2023/08/09 14:37:14;;;;;;;1.90;0.85;;;;;;;;;;6126474;23;20253;-93
2023/08/09 14:42:55;;;;;;;2.78;0.85;;;;;;;;;;6153544;23;20068;-90
2023/08/09 14:48:31;;;;;;;2.00;0.90;;;;;;;;;;6067197;23;20128;-87
2023/08/09 14:51:08;;;;;;;2.70;1.42;;;;;;;;;;6127578;23;20038;-88
2023/08/09 14:53:34;;;;;;;2.42;0.80;;;;;;;;;;6126890;23;20013;-87
2023/08/09 14:56:02;;;;;;;3.15;0.85;;;;;;;;;;6126514;23;20025;-87
2023/08/09 14:58:28;;;;;;;2.95;0.95;;;;;;;;;;6126219;23;20033;-87
2023/08/09 15:00:54;;;;;;;2.20;0.90;;;;;;;;;;6127020;23;20005;-87
2023/08/09 15:03:20;;;;;;;4.55;1.23;;;;;;;;;;6126221;23;20096;-87
2023/08/09 15:05:46;;;;;;;2.17;1.00;;;;;;;;;;6127033;23;20013;-87
2023/08/09 15:08:14;;;;;;;2.63;1.15;;;;;;;;;;6126260;23;20013;-87
2023/08/09 15:10:43;;;;;;;2.20;0.90;;;;;;;;;;6126915;23;20063;-87
2023/08/09 15:13:10;;;;;;;2.45;0.98;;;;;;;;;;6125636;23;20005;-86
2023/08/09 15:15:36;;;;;;;2.58;0.95;;;;;;;;;;6126632;23;20009;-86
2023/08/09 15:18:03;;;;;;;4.03;1.05;;;;;;;;;;6152703;23;20369;-86
2023/08/09 15:20:29;;;;;;;4.07;1.30;;;;;;;;;;6126246;23;20017;-88
2023/08/09 15:22:55;;;;;;;2.35;1.10;;;;;;;;;;6126077;23;20042;-85
2023/08/09 15:25:25;;;;;;;3.17;1.02;;;;;;;;;;6124051;23;20021;-87
2023/08/09 15:27:53;;;;;;;3.10;1.10;;;;;;;;;;6124414;23;20076;-85
2023/08/09 15:30:19;;;;;;;7.03;1.30;;;;;;;;;;6130846;23;20057;-85
2023/08/09 15:38:27;;;;;;;3.05;1.25;;;;;;;;;;6182152;23;20075;-90
2023/08/09 15:41:16;;;;;;;;;;;;;;;;;;;;;
2023/08/09 15:47:04;;;;;;;4.93;1.50;;;;;;;;;;6173384;23;20041;-89
2023/08/09 15:56:14;;;;;;;2.20;1.23;;;;;;;;;;6147277;23;20037;-89
2023/08/09 16:13:49;;;;;;;3.47;1.30;;;;;;;;;;6170581;23;20744;-89
2023/08/09 16:16:15;;;;;;;4.53;1.20;;;;;;;;;;6128940;23;20014;-88
2023/08/09 16:18:41;;;;;;;3.97;0.90;;;;;;;;;;6126594;23;20421;-88
2023/08/09 16:21:07;;;;;;;2.95;1.20;;;;;;;;;;6130038;23;20033;-87
2023/08/09 16:23:36;;;;;;;4.13;1.23;;;;;;;;;;6126078;23;20017;-87
2023/08/09 16:26:02;;;;;;;2.65;1.10;;;;;;;;;;6125706;23;20018;-88
2023/08/09 16:28:30;;;;;;;3.10;1.13;;;;;;;;;;6127043;23;20072;-89
2023/08/09 16:30:56;;;;;;;3.03;1.13;;;;;;;;;;6129141;23;20476;-88
2023/08/09 16:33:22;;;;;;;2.17;1.10;;;;;;;;;;6129797;23;20017;-90
2023/08/09 16:35:51;;;;;;;3.65;1.00;;;;;;;;;;6126339;23;20017;-90
2023/08/09 16:38:19;;;;;;;2.80;1.00;;;;;;;;;;6138788;23;20565;-88
2023/08/09 16:40:47;;;;;;;3.03;1.17;;;;;;;;;;6151317;23;20021;-87
2023/08/09 16:43:16;;;;;;;3.25;1.10;;;;;;;;;;6150369;23;20012;-88
2023/08/09 16:46:29;;;;;;;10.25;1.27;;;;;;;;;;6150965;23;20041;-90
2023/08/09 16:48:55;;;;;;;3.15;0.80;;;;;;;;;;6010182;23;20023;-86
2023/08/09 16:51:21;;;;;;;4.40;1.35;;;;;;;;;;6010899;23;20011;-89
2023/08/09 16:53:54;;;;;;;5.10;1.02;;;;;;;;;;6149623;23;20628;-89
2023/08/09 16:56:26;;;;;;;2.15;0.82;;;;;;;;;;6154779;23;20005;-88
2023/08/09 16:59:00;;;;;;;4.60;1.17;;;;;;;;;;6153563;23;20066;-89
2023/08/09 17:01:26;;;;;;;4.15;1.00;;;;;;;;;;6151672;23;20025;-89
2023/08/09 17:03:52;;;;;;;2.60;0.88;;;;;;;;;;6151397;23;20342;-88
2023/08/09 17:07:13;;;;;;;2.03;0.95;;;;;;;;;;6154819;23;20010;-90
2023/08/09 17:09:41;;;;;;;2.40;0.90;;;;;;;;;;6151820;23;20041;-88
2023/08/09 17:12:41;;;;;;;3.00;1.00;;;;;;;;;;6142284;23;20073;-88
2023/08/09 17:15:07;;;;;;;4.75;1.17;;;;;;;;;;6121489;23;20068;-87
2023/08/09 17:17:43;;;;;;;2.53;0.90;;;;;;;;;;6131485;23;20012;-87
2023/08/09 17:33:35;;;;;;;5.97;1.25;;;;;;;;;;6152925;23;20057;-86
2023/08/09 17:36:03;;;;;;;4.53;1.23;;;;;;;;;;6152969;23;20409;-86
2023/08/09 17:38:31;;;;;;;4.57;1.40;;;;;;;;;;6126370;23;20710;-85
2023/08/09 17:40:58;;;;;;;3.25;1.13;;;;;;;;;;6126325;23;20431;-87
2023/08/09 17:43:24;;;;;;;3.20;1.10;;;;;;;;;;6126119;23;20024;-86
2023/08/09 17:45:50;;;;;;;2.45;1.00;;;;;;;;;;6126016;23;20101;-85
2023/08/09 17:48:16;;;;;;;4.72;1.20;;;;;;;;;;6152265;23;20017;-89
2023/08/09 17:50:42;;;;;;;2.70;0.95;;;;;;;;;;6126001;23;20033;-85
2023/08/09 17:53:11;;;;;;;4.40;1.10;;;;;;;;;;6152928;23;20471;-88
2023/08/09 17:55:37;;;;;;;2.08;1.00;;;;;;;;;;6125863;23;20005;-86
2023/08/09 17:58:06;;;;;;;2.78;1.17;;;;;;;;;;6126337;23;20060;-87
2023/08/09 18:04:02;;;;;;;4.93;1.23;;;;;;;;;;6120004;23;20373;-89
2023/08/09 18:06:38;;;;;;;2.92;1.42;;;;;;;;;;6126073;23;20398;-89
2023/08/09 18:09:42;;;;;;;4.72;0.85;;;;;;;;;;6127929;23;20033;-92
2023/08/09 18:12:26;;;;;;;4.05;0.90;;;;;;;;;;6155396;23;20060;-91
2023/08/09 18:21:42;;;;;;;3.42;1.20;;;;;;;;;;6156308;23;20028;-90
2023/08/09 18:36:41;;;;;;;3.70;1.08;;;;;;;;;;5986380;23;20041;-91
2023/08/09 18:54:23;;;;;;;2.95;1.23;;;;;;;;;;6179687;23;20025;-89
2023/08/09 19:02:38;;;;;;;2.92;1.23;;;;;;;;;;6179510;23;20022;-90
2023/08/09 19:14:14;;;;;;;3.03;1.20;;;;;;;;;;6153532;23;20080;-93
2023/08/09 19:20:11;;;;;;;3.33;1.10;;;;;;;;;;6182739;23;20089;-90
2023/08/09 19:22:37;;;;;;;2.88;1.10;;;;;;;;;;6158620;23;20596;-90
2023/08/09 19:25:04;;;;;;;2.80;1.25;;;;;;;;;;6158713;23;20017;-89
2023/08/09 19:27:30;;;;;;;3.25;1.23;;;;;;;;;;6157881;23;20013;-89
2023/08/09 19:29:56;;;;;;;2.20;0.90;;;;;;;;;;6157944;23;20027;-90
2023/08/09 19:32:54;;;;;;;3.67;1.40;;;;;;;;;;6157542;23;20009;-93
2023/08/09 19:35:49;;;;;;;;;;;;;;;;;;;;;
2023/08/09 19:38:15;;;;;;;3.20;1.10;;;;;;;;;;6187049;23;20092;-88
2023/08/09 19:41:07;;;;;;;6.25;1.52;;;;;;;;;;6160084;23;20017;-90
2023/08/09 19:44:08;;;;;;;5.70;1.35;;;;;;;;;;6158667;23;20417;-90
2023/08/09 19:47:01;;;;;;;3.35;1.67;;;;;;;;;;6066119;23;20033;-93
2023/08/09 19:52:58;;;;;;;5.07;1.10;;;;;;;;;;6133835;23;20091;-93
2023/08/09 20:01:38;;;;;;;3.60;1.30;;;;;;;;;;6121869;23;20627;-92
2023/08/09 20:04:05;;;;;;;3.33;1.55;;;;;;;;;;6127729;23;20017;-92
2023/08/09 20:06:33;;;;;;;3.05;1.30;;;;;;;;;;6126918;23;20060;-92
2023/08/09 20:08:59;;;;;;;3.38;1.38;;;;;;;;;;6129481;23;20041;-90
2023/08/09 20:11:40;;;;;;;3.80;1.20;;;;;;;;;;6131121;23;20010;-90
2023/08/09 20:14:32;;;;;;;4.10;1.23;;;;;;;;;;6128654;23;20076;-93
2023/08/09 20:17:21;;;;;;;4.57;1.30;;;;;;;;;;6119329;23;20041;-92
2023/08/09 20:22:59;;;;;;;5.35;1.50;;;;;;;;;;6136339;23;20072;-91
2023/08/09 20:46:51;;;;;;;;;;;;;;;;;;;;;
2023/08/09 20:52:45;;;;;;;3.95;1.40;;;;;;;;;;6178276;23;20021;-87
2023/08/09 20:55:17;;;;;;;6.07;1.58;;;;;;;;;;6157322;23;20421;-87
2023/08/09 20:57:57;;;;;;;5.38;1.52;;;;;;;;;;6156503;23;20078;-88
2023/08/09 21:07:04;;;;;;;3.85;1.50;;;;;;;;;;6063015;23;20102;-88
2023/08/09 21:12:58;;;;;;;3.20;1.30;;;;;;;;;;6062252;23;20011;-88
2023/08/09 21:16:11;;;;;;;;;;;;;;;;;;;;;
2023/08/09 21:19:21;;;;;;;4.43;1.33;;;;;;;;;;6181182;23;20092;-88
2023/08/09 21:25:04;;;;;;;3.95;1.00;;;;;;;;;;6068713;23;20483;-87
2023/08/09 21:27:50;;;;;;;5.53;1.10;;;;;;;;;;6154771;23;20045;-87
2023/08/09 21:30:46;;;;;;;4.32;1.52;;;;;;;;;;6148799;23;20017;-87
2023/08/09 21:33:18;;;;;;;4.13;1.17;;;;;;;;;;6126070;23;20048;-87
2023/08/09 21:35:46;;;;;;;4.65;1.33;;;;;;;;;;6148427;23;20041;-88
2023/08/09 21:38:33;;;;;;;3.22;1.48;;;;;;;;;;6123377;23;20111;-87
2023/08/09 21:41:19;;;;;;;3.40;1.25;;;;;;;;;;6123475;23;20029;-87
2023/08/09 21:44:23;;;;;;;3.55;1.30;;;;;;;;;;6124927;23;20017;-88
2023/08/09 21:47:14;;;;;;;8.57;1.70;;;;;;;;;;5979114;23;20026;-87
2023/08/09 21:53:10;;;;;;;4.60;1.60;;;;;;;;;;6061619;23;20018;-87
2023/08/09 21:55:59;;;;;;;3.35;1.27;;;;;;;;;;6061476;23;20025;-87
2023/08/09 21:58:42;;;;;;;4.38;1.33;;;;;;;;;;6074627;23;20042;-87
2023/08/09 22:01:22;;;;;;;2.78;1.27;;;;;;;;;;6066522;23;20022;-87
2023/08/09 22:03:58;;;;;;;4.75;1.63;;;;;;;;;;6067230;23;20026;-87
2023/08/09 22:07:03;;;;;;;2.63;1.25;;;;;;;;;;6087522;23;20023;-88
2023/08/09 22:13:11;;;;;;;4.15;1.10;;;;;;;;;;6148991;23;20025;-87
2023/08/09 22:15:43;;;;;;;6.05;1.33;;;;;;;;;;6124023;23;20145;-87
2023/08/09 22:36:03;;;;;;;3.83;1.67;;;;;;;;;;6183068;23;20021;-87
2023/08/09 22:38:49;;;;;;;5.30;1.45;;;;;;;;;;6085906;23;2120859;-88
2023/08/09 22:41:23;;;;;;;3.20;1.40;;;;;;;;;;6181004;23;20449;-87
2023/08/09 22:43:52;;;;;;;2.42;1.10;;;;;;;;;;6149046;23;20013;-87
2023/08/09 22:46:24;;;;;;;6.93;1.27;;;;;;;;;;6143256;23;20025;-87
2023/08/09 22:49:10;;;;;;;3.58;1.63;;;;;;;;;;6180658;23;20025;-87
2023/08/09 22:51:48;;;;;;;3.92;1.50;;;;;;;;;;6165677;23;20096;-88
2023/08/09 22:54:28;;;;;;;3.78;1.27;;;;;;;;;;6180357;23;20017;-87
2023/08/09 22:57:21;;;;;;;;;;;;;;;;;;;;;
2023/08/09 23:00:11;;;;;;;6.40;1.30;;;;;;;;;;6182424;23;20096;-88
2023/08/09 23:03:09;;;;;;;5.05;1.40;;;;;;;;;;6179944;23;20016;-87
2023/08/09 23:05:48;;;;;;;5.07;1.10;;;;;;;;;;6180224;23;20013;-87
2023/08/09 23:46:39;;;;;;;6.82;1.33;;;;;;;;;;6173124;23;20044;-88
